Latest Weather Observations for Garden Island

IDW60901

Issued at 7:51 pm WST Friday 9 December 2022 (issued every 10 minutes, with the page automatically refreshed every 10 minutes)

About weather observations | Map of Perth area stations | Latest observations for Perth area | Other Formats
Station Details ID: 009256 Name: GARDEN ISLAND HSF Lat: -32.24 Lon: 115.68 Height: 6.0 m
Data from the previous 72 hours. | See also: Recent months at Garden Island
Date/Time
WST
Temp
°C
App
Temp
°C
Dew
Point
°C
Rel
Hum
%
Delta-T
°C
Wind Press
QNH
hPa
Press
MSL
hPa
Rain since
9am
mm
Dir  Spd
km/h
Gust
km/h
Spd
kts
Gust
kts
09/07:30pm 19.0 14.7 16.0 83 1.8 SSW 33 41 18 22 1015.0 1015.0 0.0
09/07:00pm 19.7 16.5 16.2 80 2.1 SW 28 37 15 20 1014.8 1014.8 0.0
09/06:30pm 19.6 16.2 14.8 74 2.8 SW 26 32 14 17 1014.6 1014.6 0.0
09/06:00pm 19.7 15.6 13.9 69 3.3 SW 28 33 15 18 1014.3 1014.3 0.0
09/05:30pm 20.3 17.0 14.0 67 3.6 SW 24 32 13 17 1014.1 1014.1 0.0
09/05:00pm 20.6 17.6 13.8 65 3.9 SW 22 30 12 16 1013.5 1013.5 0.0
09/04:30pm 20.3 15.9 13.0 63 4.1 SW 28 33 15 18 1013.3 1013.3 0.0
09/04:00pm 20.7 16.8 13.2 62 4.3 SW 26 33 14 18 1013.3 1013.3 0.0
09/03:30pm 20.7 16.1 12.4 59 4.7 SW 28 35 15 19 1013.4 1013.4 0.0
09/03:00pm 21.0 16.9 12.7 59 4.7 SW 26 35 14 19 1013.4 1013.4 0.0
09/02:30pm 21.5 17.9 11.8 54 5.4 WSW 22 32 12 17 1013.3 1013.3 0.0
09/02:00pm 21.8 18.0 12.4 55 5.3 WSW 24 32 13 17 1013.4 1013.4 0.0
09/01:30pm 21.4 17.4 11.7 54 5.4 WSW 24 32 13 17 1013.3 1013.3 0.0
09/01:00pm 21.9 19.4 12.2 54 5.5 W 17 22 9 12 1013.4 1013.4 0.0
09/12:30pm 21.5 18.8 12.9 58 4.9 WSW 19 24 10 13 1013.6 1013.6 0.0
09/12:00pm 20.7 17.9 11.3 55 5.2 WSW 17 22 9 12 1013.8 1013.8 0.0
09/11:30am 20.9 18.7 12.1 57 4.9 SW 15 19 8 10 1013.8 1013.8 0.0
09/11:00am 20.6 18.6 12.8 61 4.4 SW 15 20 8 11 1013.7 1013.7 0.0
09/10:30am 20.3 17.9 12.8 62 4.2 SW 17 20 9 11 1013.7 1013.7 0.0
09/10:00am 19.6 16.5 11.6 60 4.4 SSW 19 26 10 14 1013.7 1013.7 0.0
09/09:30am 19.4 17.2 12.2 63 4.0 S 15 20 8 11 1013.6 1013.6 0.0
09/09:00am 19.2 16.6 12.0 63 4.0 S 17 20 9 11 1013.6 1013.6 0.0
09/08:30am 18.3 15.1 11.8 66 3.6 S 20 26 11 14 1013.5 1013.5 0.0
09/08:00am 17.8 14.7 12.3 70 3.0 S 20 24 11 13 1013.5 1013.5 0.0
09/07:30am 18.0 15.9 12.5 70 3.1 S 15 19 8 10 1013.2 1013.2 0.0
09/07:00am 17.9 14.9 12.1 69 3.2 S 19 26 10 14 1013.0 1013.0 0.0
09/06:30am 17.8 13.6 12.5 71 2.9 SSW 26 32 14 17 1012.6 1012.6 0.0
09/06:00am 17.7 13.9 12.4 71 2.9 SW 24 32 13 17 1012.4 1012.4 0.0
09/05:30am 17.5 13.6 12.0 70 3.0 SW 24 32 13 17 1012.3 1012.3 0.0
09/05:00am 17.5 13.1 11.8 69 3.1 SSW 26 32 14 17 1012.1 1012.1 0.0
09/04:30am 17.4 13.1 11.9 70 3.0 SW 26 39 14 21 1011.9 1011.9 0.0
09/04:00am 17.6 12.7 12.5 72 2.8 SSW 30 35 16 19 1011.7 1011.7 0.0
09/03:30am 17.4 12.0 12.1 71 2.9 SW 32 39 17 21 1011.7 1011.7 0.0
09/03:00am 17.5 12.2 12.4 72 2.8 SW 32 39 17 21 1011.7 1011.7 0.0
09/02:30am 17.7 12.6 13.0 74 2.6 SW 32 39 17 21 1011.7 1011.7 0.0
09/02:00am 17.8 12.2 13.3 75 2.5 SSW 35 39 19 21 1011.7 1011.7 0.0
09/01:30am 18.0 13.2 14.1 78 2.2 SW 32 39 17 21 1011.7 1011.7 0.0
09/01:00am 18.2 13.2 13.9 76 2.5 SW 33 39 18 21 1011.7 1011.7 0.0
09/12:30am 18.1 13.0 13.8 76 2.4 SW 33 43 18 23 1011.7 1011.7 0.0
09/12:00am 17.9 12.8 13.6 76 2.4 SW 33 39 18 21 1011.9 1011.9 0.0
 
Date/Time
WST
Temp
°C
App
Temp
°C
Dew
Point
°C
Rel
Hum
%
Delta-T
°C
Wind Press
QNH
hPa
Press
MSL
hPa
Rain since
9am
mm
Dir  Spd
km/h
Gust
km/h
Spd
kts
Gust
kts
08/11:30pm 18.3 13.5 14.6 79 2.1 SW 33 41 18 22 1012.0 1012.0 0.0
08/11:00pm 18.3 13.4 14.4 78 2.2 SW 33 39 18 21 1012.2 1012.2 0.0
08/10:30pm 18.7 13.7 15.0 79 2.2 SSW 35 41 19 22 1012.3 1012.3 0.0
08/10:00pm 18.6 14.1 14.9 79 2.2 SW 32 41 17 22 1012.4 1012.4 0.0
08/09:30pm 18.6 14.1 15.3 81 1.9 SW 33 41 18 22 1012.3 1012.3 0.0
08/09:00pm 18.7 14.3 15.6 82 1.8 SW 33 41 18 22 1012.2 1012.2 0.0
08/08:30pm 18.7 14.5 15.8 83 1.7 SW 32 37 17 20 1011.9 1011.9 0.0
08/08:00pm 19.0 14.8 16.2 84 1.7 SW 33 41 18 22 1011.7 1011.7 0.0
08/07:30pm 18.8 14.7 15.9 83 1.7 SW 32 41 17 22 1011.1 1011.1 0.0
08/07:00pm 19.0 14.9 16.0 83 1.8 SW 32 41 17 22 1011.0 1011.0 0.0
08/06:30pm 19.4 15.6 16.6 84 1.7 SW 32 41 17 22 1010.7 1010.7 0.0
08/06:00pm 19.7 15.7 16.7 83 1.8 SW 33 41 18 22 1010.1 1010.1 0.0
08/05:30pm 19.6 15.1 16.3 81 2.0 SW 35 41 19 22 1009.8 1009.8 0.0
08/05:00pm 20.4 16.6 16.6 79 2.3 SW 32 39 17 21 1009.5 1009.5 0.0
08/04:30pm 20.8 19.2 16.4 76 2.7 SW 20 26 11 14 1009.5 1009.5 0.0
08/04:00pm 21.2 18.9 16.6 75 2.8 SSW 24 30 13 16 1009.4 1009.4 0.0
08/03:30pm 20.7 18.1 15.9 74 2.9 SW 24 33 13 18 1009.3 1009.3 0.0
08/03:00pm 20.7 17.7 15.9 74 2.9 SW 26 32 14 17 1009.5 1009.5 0.0
08/02:30pm 21.2 18.5 16.6 75 2.8 SW 26 30 14 16 1009.2 1009.2 0.0
08/02:00pm 20.9 18.4 16.1 74 2.9 SW 24 30 13 16 1009.2 1009.2 0.0
08/01:30pm 21.1 18.1 15.9 72 3.1 SW 26 33 14 18 1009.2 1009.2 0.0
08/01:00pm 21.1 18.0 15.6 71 3.3 SW 26 37 14 20 1009.1 1009.1 0.0
08/12:30pm 21.5 18.6 16.0 71 3.3 SW 26 35 14 19 1009.1 1009.1 0.0
08/12:00pm 21.9 20.2 16.2 70 3.4 WSW 20 30 11 16 1009.0 1009.0 0.0
08/11:30am 21.4 19.5 16.8 75 2.8 SW 22 28 12 15 1008.7 1008.7 0.0
08/11:00am 20.9 18.4 16.1 74 2.9 SW 24 30 13 16 1008.6 1008.6 0.0
08/10:30am 20.9 18.7 16.9 78 2.4 SW 24 30 13 16 1008.7 1008.7 0.0
08/10:00am 21.6 20.9 17.4 77 2.6 SW 17 24 9 13 1008.8 1008.8 0.0
08/09:30am 21.3 20.5 17.9 81 2.1 SW 19 24 10 13 1008.7 1008.7 0.0
08/09:00am 21.7 21.5 17.7 78 2.5 SW 15 20 8 11 1008.5 1008.5 10.6
08/08:30am 21.5 20.5 17.5 78 2.5 WSW 19 24 10 13 1008.3 1008.3 10.6
08/08:00am 21.2 20.2 18.0 82 2.0 WSW 20 26 11 14 1008.0 1008.0 10.6
08/07:30am 21.0 19.2 17.0 78 2.4 WSW 22 28 12 15 1007.6 1007.6 10.6
08/07:00am 20.6 18.2 16.4 77 2.5 WSW 24 30 13 16 1007.2 1007.2 10.6
08/06:30am 20.3 18.5 14.4 69 3.4 WSW 17 22 9 12 1006.6 1006.6 10.6
08/06:00am 19.9 17.8 13.6 67 3.6 SW 17 19 9 10 1006.3 1006.3 10.6
08/05:30am 19.8 18.1 12.3 62 4.2 S 13 17 7 9 1005.5 1005.5 10.6
08/05:00am 19.2 17.7 12.0 63 4.0 SSE 11 17 6 9 1005.0 1005.0 10.6
08/04:30am 19.1 16.2 12.4 65 3.7 S 19 30 10 16 1004.7 1004.7 10.6
08/04:00am 18.5 15.2 12.7 69 3.3 ESE 22 33 12 18 1004.4 1004.4 10.6
08/03:30am 18.2 14.1 12.6 70 3.1 E 26 43 14 23 1003.7 1003.7 10.6
08/03:00am 18.4 12.2 12.8 70 3.1 ESE 37 54 20 29 1003.7 1003.7 10.6
08/02:48am 18.8 13.2 13.4 71 3.1 ESE 35 54 19 29 1003.5 1003.5 10.6
08/02:30am 19.2 13.6 13.2 68 3.4 SE 35 48 19 26 1004.2 1004.2 10.6
08/02:00am 18.7 14.5 14.6 77 2.4 SE 30 37 16 20 1004.3 1004.3 10.6
08/01:30am 19.7 14.8 15.4 76 2.5 SSE 35 41 19 22 1004.4 1004.4 10.6
08/01:00am 20.0 14.8 14.6 71 3.2 SSE 35 44 19 24 1004.6 1004.6 10.6
08/12:30am 19.9 15.4 14.9 73 2.9 SSE 32 39 17 21 1005.0 1005.0 10.6
08/12:21am 19.3 14.1 14.6 74 2.7 SSE 35 43 19 23 1004.6 1004.6 10.6
08/12:00am 18.7 14.1 14.6 77 2.4 SSE 32 39 17 21 1004.1 1004.1 10.6
 
Date/Time
WST
Temp
°C
App
Temp
°C
Dew
Point
°C
Rel
Hum
%
Delta-T
°C
Wind Press
QNH
hPa
Press
MSL
hPa
Rain since
9am
mm
Dir  Spd
km/h
Gust
km/h
Spd
kts
Gust
kts
07/11:41pm 19.3 11.7 14.6 74 2.7 SSE 48 61 26 33 1003.8 1003.8 10.6
07/11:31pm 19.1 10.8 13.7 71 3.1 SSE 50 61 27 33 1003.8 1003.8 10.6
07/11:30pm 18.8 11.1 14.5 76 2.5 SSE 48 59 26 32 1003.8 1003.8 10.6
07/11:13pm 18.4 14.2 15.8 85 1.5 SSE 32 54 17 29 1004.6 1004.6 10.4
07/11:10pm 18.2 15.1 15.6 85 1.5 SE 26 41 14 22 1005.0 1005.0 10.4
07/11:00pm 18.8 17.7 15.3 80 2.1 SSW 15 28 8 15 1007.1 1007.1 8.6
07/10:30pm 18.9 16.0 16.0 83 1.7 SE 26 32 14 17 1006.0 1006.0 6.6
07/10:00pm 19.1 14.8 16.0 82 1.8 SE 33 39 18 21 1006.0 1006.0 6.0
07/09:55pm 19.1 14.9 16.1 83 1.8 SSE 33 39 18 21 1006.0 1006.0 6.0
07/09:51pm 19.1 14.9 16.3 84 1.7 SSE 33 37 18 20 1006.1 1006.1 6.0
07/09:30pm 20.0 15.4 16.0 78 2.4 S 35 44 19 24 1006.7 1006.7 3.4
07/09:00pm 19.5 17.5 17.3 87 1.3 SSE 24 37 13 20 1006.9 1006.9 2.8
07/08:30pm 20.2 13.7 16.6 80 2.2 S 46 57 25 31 1005.8 1005.8 0.0
07/08:00pm 20.4 14.4 17.0 81 2.1 SSW 44 56 24 30 1006.0 1006.0 0.0
07/07:30pm 20.3 13.8 16.7 80 2.2 S 46 56 25 30 1005.9 1005.9 0.0
07/07:23pm 20.4 13.6 16.8 80 2.2 S 48 57 26 31 1006.1 1006.1 0.0
07/07:00pm 20.1 12.4 16.5 80 2.2 S 52 61 28 33 1005.9 1005.9 0.0
07/06:30pm 20.2 12.2 16.6 80 2.2 SSW 54 63 29 34 1006.3 1006.3 0.0
07/06:00pm 20.6 13.5 17.0 80 2.2 SSW 50 57 27 31 1006.7 1006.7 0.0
07/05:30pm 20.4 13.7 16.0 76 2.6 SSW 46 56 25 30 1006.9 1006.9 0.0
07/05:00pm 21.3 14.7 16.3 73 3.0 SSW 46 56 25 30 1007.2 1007.2 0.0
07/04:30pm 21.1 14.6 15.6 71 3.3 SSW 44 52 24 28 1007.4 1007.4 0.0
07/04:00pm 21.6 15.5 16.3 72 3.2 SSW 43 52 23 28 1007.5 1007.5 0.0
07/03:30pm 21.9 16.7 16.6 72 3.2 SSW 39 50 21 27 1007.9 1007.9 0.0
07/03:00pm 22.2 17.1 16.7 71 3.4 SSW 39 46 21 25 1008.3 1008.3 0.0
07/02:32pm 22.6 19.4 16.4 68 3.8 SW 28 48 15 26 1008.6 1008.6 0.0
07/02:30pm 23.1 20.7 16.4 66 4.1 SW 24 43 13 23 1008.7 1008.7 0.0
07/02:00pm 26.5 24.4 12.5 41 8.1 SE 15 20 8 11 1009.1 1009.1 0.0
07/01:30pm 27.0 21.8 8.9 32 9.9 SE 26 33 14 18 1009.8 1009.8 0.0
07/01:00pm 25.9 21.9 10.5 38 8.6 SE 22 32 12 17 1010.3 1010.3 0.0
07/12:30pm 26.6 22.7 9.5 34 9.4 SE 20 32 11 17 1011.1 1011.1 0.0
07/12:00pm 26.6 22.6 9.0 33 9.6 E 20 28 11 15 1011.7 1011.7 0.0
07/11:30am 25.5 20.3 8.9 35 9.0 E 26 33 14 18 1012.2 1012.2 0.0
07/11:00am 25.0 19.9 9.3 37 8.6 ESE 26 35 14 19 1012.7 1012.7 0.0
07/10:30am 24.7 19.7 9.4 38 8.3 E 26 35 14 19 1013.1 1013.1 0.0
07/10:00am 23.6 19.0 9.6 41 7.6 ESE 24 35 13 19 1013.6 1013.6 0.0
07/09:30am 22.6 17.9 10.7 47 6.6 E 26 39 14 21 1014.0 1014.0 0.0
07/09:00am 21.2 15.9 9.8 48 6.1 E 28 35 15 19 1014.4 1014.4 0.0
07/08:30am 20.4 15.2 10.2 52 5.5 E 28 39 15 21 1014.7 1014.7 0.0
07/08:00am 18.9 13.6 9.9 56 4.8 E 28 43 15 23 1015.1 1015.1 0.0
07/07:30am 17.5 11.5 10.1 62 3.9 E 32 44 17 24 1015.2 1015.2 0.0
07/07:00am 17.0 11.5 10.4 65 3.5 E 30 46 16 25 1015.2 1015.2 0.0
07/06:30am 16.2 11.0 10.3 68 3.1 E 28 39 15 21 1015.1 1015.1 0.0
07/06:00am 15.5 9.9 10.3 71 2.7 E 30 43 16 23 1014.9 1014.9 0.0
07/05:47am 15.2 8.9 9.8 70 2.8 E 33 54 18 29 1014.9 1014.9 0.0
07/05:30am 15.1 8.9 9.9 71 2.7 E 33 50 18 27 1014.7 1014.7 0.0
07/05:06am 15.1 8.9 9.9 71 2.7 E 33 54 18 29 1014.5 1014.5 0.0
07/05:00am 15.1 8.9 9.9 71 2.7 E 33 48 18 26 1014.5 1014.5 0.0
07/04:30am 15.2 8.7 10.4 73 2.5 E 35 46 19 25 1014.3 1014.3 0.0
07/04:00am 15.1 8.6 10.3 73 2.5 ESE 35 48 19 26 1014.1 1014.1 0.0
07/03:30am 15.3 8.8 10.3 72 2.6 ESE 35 50 19 27 1014.0 1014.0 0.0
07/03:00am 15.6 9.5 10.4 71 2.7 ESE 33 50 18 27 1014.0 1014.0 0.0
07/02:30am 15.9 10.0 10.4 70 2.9 ESE 32 46 17 25 1014.1 1014.1 0.0
07/02:00am 16.3 10.4 10.4 68 3.1 ESE 32 43 17 23 1014.2 1014.2 0.0
07/01:55am 16.3 10.7 10.2 67 3.2 E 30 48 16 26 1014.2 1014.2 0.0
07/01:30am 16.5 10.6 10.4 67 3.2 ESE 32 48 17 26 1014.4 1014.4 0.0
07/01:24am 16.5 11.0 10.4 67 3.2 ESE 30 48 16 26 1014.4 1014.4 0.0
07/01:00am 16.9 11.4 10.7 67 3.3 ESE 30 43 16 23 1014.5 1014.5 0.0
07/12:30am 17.5 11.6 10.4 63 3.8 ESE 32 43 17 23 1014.6 1014.6 0.0
07/12:00am 18.3 13.2 10.7 61 4.1 ESE 28 41 15 22 1014.6 1014.6 0.0
 
Date/Time
WST
Temp
°C
App
Temp
°C
Dew
Point
°C
Rel
Hum
%
Delta-T
°C
Wind Press
QNH
hPa
Press
MSL
hPa
Rain since
9am
mm
Dir  Spd
km/h
Gust
km/h
Spd
kts
Gust
kts
06/11:30pm 19.3 13.2 10.3 56 4.8 ESE 33 43 18 23 1014.7 1014.7 0.0
06/11:16pm 19.6 14.2 10.9 57 4.7 ESE 30 48 16 26 1014.7 1014.7 0.0
06/11:00pm 19.9 13.8 10.6 55 5.0 ESE 33 46 18 25 1014.8 1014.8 0.0
06/10:30pm 20.5 13.8 9.7 50 5.8 SE 35 48 19 26 1014.7 1014.7 0.0
06/10:00pm 21.1 15.2 10.3 50 5.9 SE 32 43 17 23 1014.6 1014.6 0.0
06/09:30pm 21.1 16.6 11.4 54 5.4 SSE 26 32 14 17 1014.4 1014.4 0.0
06/09:00pm 21.2 16.7 15.5 70 3.4 S 33 39 18 21 1014.0 1014.0 0.0
06/08:30pm 21.1 15.8 16.3 74 2.9 S 39 46 21 25 1013.7 1013.7 0.0
06/08:00pm 20.8 14.6 16.0 74 2.9 S 43 52 23 28 1013.4 1013.4 0.0

Latest Capital City Observations: Canberra | Sydney | Melbourne | Brisbane | Adelaide | Perth | Hobart | Darwin

Other formats

Comma delimited format used in spreadsheet applications
http://www.bom.gov.au/fwo/IDW60901/IDW60901.95607.axf

JavaScript Object Notation format (JSON) in row-major order
http://www.bom.gov.au/fwo/IDW60901/IDW60901.95607.json

Data quality

Most of these data are generated automatically and are frequently updated. Quality checks on data are not normally performed. It is possible for incorrect values to appear. Refer to information at About Latest Weather Observations and please check the disclaimer before using these data.